Time;durP1;ratioP1;P1;durP2;ratioP2;P2;SDS_P1;SDS_P2;PMS_P1;PMS_P2;Temp;Humidity;BMP_temperature;BMP_pressure;BME280_temperature;BME280_humidity;BME280_pressure;Samples;Min_cycle;Max_cycle;Signal;HPM_P1;HPM_P2
2021/05/26 00:01:04;;;;;;;31.42;12.18;;;;;;;13.67;100.00;101417.31;1706111;82;21612;-90
2021/05/26 00:03:30;;;;;;;26.57;11.70;;;;;;;13.68;100.00;101419.47;1706241;82;21133;-90
2021/05/26 00:05:56;;;;;;;28.67;10.68;;;;;;;13.66;100.00;101417.58;1706237;82;21057;-90
2021/05/26 00:08:33;;;;;;;24.27;10.50;;;;;;;13.64;100.00;101413.77;1706234;82;21000;-90
2021/05/26 00:11:02;;;;;;;19.07;9.15;;;;;;;13.62;100.00;101423.52;1706074;83;21098;-89
2021/05/26 00:13:29;;;;;;;21.35;9.45;;;;;;;13.59;100.00;101422.69;1706140;82;21033;-90
2021/05/26 00:15:55;;;;;;;25.80;9.50;;;;;;;13.56;100.00;101421.01;1706255;82;21096;-90
2021/05/26 00:18:22;;;;;;;22.82;9.58;;;;;;;13.56;100.00;101428.62;1706148;82;21604;-89
2021/05/26 00:20:51;;;;;;;26.48;9.10;;;;;;;13.57;100.00;101426.18;1706143;83;21048;-89
2021/05/26 00:23:17;;;;;;;17.65;8.95;;;;;;;13.55;100.00;101422.91;1706127;82;21052;-90
2021/05/26 00:25:44;;;;;;;23.15;8.53;;;;;;;13.54;100.00;101418.58;1705972;82;21660;-90
2021/05/26 00:28:10;;;;;;;17.42;9.10;;;;;;;13.53;100.00;101418.31;1705941;83;21132;-90
2021/05/26 00:30:43;;;;;;;19.45;8.33;;;;;;;13.50;100.00;101417.47;1706287;82;21031;-89
2021/05/26 00:33:04;;;;;;;16.85;8.28;;;;;;;13.48;100.00;101416.91;1701653;82;20976;-90
2021/05/26 00:35:30;;;;;;;15.20;8.35;;;;;;;13.49;100.00;101414.47;1706106;82;21112;-90
2021/05/26 00:37:56;;;;;;;17.52;8.50;;;;;;;13.50;100.00;101419.34;1701350;82;21016;-90
2021/05/26 00:40:22;;;;;;;19.77;9.18;;;;;;;13.48;100.00;101416.91;1706035;82;21055;-90
2021/05/26 00:42:47;;;;;;;15.90;8.53;;;;;;;13.44;100.00;101418.48;1706195;82;21654;-90
2021/05/26 00:45:17;;;;;;;21.20;9.13;;;;;;;13.39;100.00;101418.46;1706225;82;20941;-89
2021/05/26 00:47:49;;;;;;;22.50;9.55;;;;;;;13.33;100.00;101414.08;1706227;82;21083;-90
2021/05/26 00:50:20;;;;;;;17.30;8.70;;;;;;;13.33;100.00;101418.14;1706167;82;21516;-90
2021/05/26 00:52:47;;;;;;;17.55;8.85;;;;;;;13.33;100.00;101416.79;1706283;82;21664;-90
2021/05/26 00:55:17;;;;;;;17.32;8.48;;;;;;;13.35;100.00;101415.46;1706128;82;21588;-89
2021/05/26 00:57:43;;;;;;;19.52;9.78;;;;;;;13.34;100.00;101411.09;1706323;82;21074;-89
2021/05/26 01:00:13;;;;;;;22.05;9.23;;;;;;;13.33;100.00;101414.89;1706265;82;21032;-89
2021/05/26 01:02:39;;;;;;;20.20;10.03;;;;;;;13.30;100.00;101408.64;1706239;82;20964;-89
2021/05/26 01:05:07;;;;;;;21.87;10.53;;;;;;;13.21;100.00;101412.02;1706245;82;21519;-90
2021/05/26 01:07:33;;;;;;;22.73;9.30;;;;;;;13.09;100.00;101415.73;1706336;82;21032;-90
2021/05/26 01:10:00;;;;;;;16.77;8.93;;;;;;;13.08;100.00;101419.49;1706247;82;21093;-89
2021/05/26 01:12:27;;;;;;;16.82;8.58;;;;;;;13.05;100.00;101422.72;1706478;82;21080;-89
2021/05/26 01:14:53;;;;;;;19.23;8.28;;;;;;;13.10;100.00;101413.84;1706118;82;21044;-89
2021/05/26 01:17:19;;;;;;;17.92;7.95;;;;;;;13.08;100.00;101411.38;1706304;82;21091;-89
2021/05/26 01:19:45;;;;;;;15.25;8.68;;;;;;;13.10;100.00;101417.36;1706091;82;20886;-90
2021/05/26 01:22:11;;;;;;;16.17;7.53;;;;;;;13.14;100.00;101410.34;1706348;82;20929;-89
2021/05/26 01:24:37;;;;;;;11.38;6.47;;;;;;;13.10;100.00;101411.95;1706151;82;21008;-89
2021/05/26 01:27:04;;;;;;;13.25;6.35;;;;;;;13.00;100.00;101411.86;1706173;82;21209;-90
2021/05/26 01:29:30;;;;;;;10.13;6.08;;;;;;;13.04;100.00;101402.69;1709655;83;21142;-89
2021/05/26 01:31:57;;;;;;;11.70;6.33;;;;;;;13.05;100.00;101411.89;1709612;83;21044;-89
2021/05/26 01:34:23;;;;;;;16.02;6.95;;;;;;;13.06;100.00;101409.48;1709381;83;20988;-89
2021/05/26 01:36:50;;;;;;;13.40;6.80;;;;;;;12.97;100.00;101409.67;1709507;83;21682;-90
2021/05/26 01:39:17;;;;;;;13.45;7.20;;;;;;;12.90;100.00;101406.34;1705425;83;21020;-90
2021/05/26 01:41:45;;;;;;;15.00;7.28;;;;;;;12.95;100.00;101409.09;1709453;83;21161;-90
2021/05/26 01:44:11;;;;;;;16.93;7.65;;;;;;;12.97;100.00;101405.61;1652326;86;21623;-90
2021/05/26 01:46:38;;;;;;;13.93;6.45;;;;;;;12.99;100.00;101413.45;1652253;86;21052;-90
2021/05/26 01:49:05;;;;;;;12.53;6.30;;;;;;;12.96;100.00;101410.72;1652168;86;21099;-90
2021/05/26 01:51:33;;;;;;;10.88;6.30;;;;;;;12.97;100.00;101416.44;1652419;86;21015;-90
2021/05/26 01:53:59;;;;;;;11.35;6.75;;;;;;;12.98;100.00;101415.89;1652389;86;21099;-91
2021/05/26 01:56:30;;;;;;;9.55;5.58;;;;;;;13.03;100.00;101421.33;1652280;86;21590;-91
2021/05/26 01:58:57;;;;;;;9.60;5.65;;;;;;;13.05;100.00;101423.25;1652358;86;21011;-90
2021/05/26 02:01:25;;;;;;;10.95;5.87;;;;;;;13.11;100.00;101416.81;1652289;86;21179;-89
2021/05/26 02:03:52;;;;;;;10.80;5.92;;;;;;;13.15;100.00;101414.70;1652318;86;21406;-90
2021/05/26 02:06:21;;;;;;;10.68;5.80;;;;;;;13.14;100.00;101413.59;1652347;86;21141;-90
2021/05/26 02:08:51;;;;;;;10.68;5.90;;;;;;;13.19;100.00;101415.00;1652513;86;21000;-90
2021/05/26 02:14:04;;;;;;;9.38;5.40;;;;;;;13.26;100.00;101419.69;1652373;86;21264;-90
2021/05/26 02:16:30;;;;;;;11.88;5.80;;;;;;;13.32;100.00;101416.48;1652564;86;21180;-90
2021/05/26 02:18:56;;;;;;;7.83;5.00;;;;;;;13.33;100.00;101418.95;1652411;86;21788;-90
2021/05/26 02:21:22;;;;;;;9.23;5.62;;;;;;;13.40;100.00;101419.55;1625255;88;21086;-90
2021/05/26 02:23:48;;;;;;;12.28;6.10;;;;;;;13.38;100.00;101424.93;1625507;88;21066;-90
2021/05/26 02:26:14;;;;;;;12.23;6.85;;;;;;;13.41;100.00;101427.13;1625298;88;21141;-90
2021/05/26 02:28:41;;;;;;;11.05;6.70;;;;;;;13.42;100.00;101427.42;1624084;87;21075;-90
2021/05/26 02:31:09;;;;;;;13.20;6.67;;;;;;;13.36;100.00;101431.97;1623071;88;21163;-90
2021/05/26 02:33:37;;;;;;;14.43;7.12;;;;;;;13.43;100.00;101437.17;1622941;88;21063;-90
2021/05/26 02:36:06;;;;;;;13.25;7.45;;;;;;;13.54;100.00;101433.47;1593211;90;21122;-90
2021/05/26 02:38:32;;;;;;;14.23;7.72;;;;;;;13.55;100.00;101429.67;1593238;90;21205;-90
2021/05/26 02:40:58;;;;;;;16.17;7.83;;;;;;;13.63;100.00;101440.58;1582418;90;21078;-89
2021/05/26 02:43:24;;;;;;;13.22;7.87;;;;;;;13.63;100.00;101441.94;1568534;91;21796;-90
2021/05/26 02:45:51;;;;;;;16.35;8.30;;;;;;;13.78;100.00;101439.88;1590128;88;20868;-90
2021/05/26 02:48:18;;;;;;;13.03;8.00;;;;;;;13.82;100.00;101433.69;1595968;89;21602;-89
2021/05/26 02:50:44;;;;;;;17.27;8.58;;;;;;;13.94;100.00;101433.50;1596048;89;21118;-90
2021/05/26 02:53:10;;;;;;;17.45;8.48;;;;;;;13.99;100.00;101436.22;1596024;89;21255;-89
2021/05/26 02:55:36;;;;;;;14.60;7.75;;;;;;;14.13;100.00;101437.12;1596038;89;21125;-89
2021/05/26 02:58:02;;;;;;;20.20;9.30;;;;;;;14.28;100.00;101443.42;1595779;89;21122;-89
2021/05/26 03:00:28;;;;;;;14.28;7.85;;;;;;;14.41;100.00;101440.80;1569826;91;21121;-89
2021/05/26 03:02:54;;;;;;;13.70;7.62;;;;;;;14.48;100.00;101443.25;1594802;90;21146;-89
2021/05/26 03:05:21;;;;;;;14.50;8.20;;;;;;;14.59;100.00;101442.77;1569742;91;20959;-89
2021/05/26 03:07:47;;;;;;;16.95;8.93;;;;;;;14.74;100.00;101438.77;1594641;90;21095;-89
2021/05/26 03:10:16;;;;;;;13.25;8.43;;;;;;;14.87;100.00;101443.68;1568358;91;21059;-89
2021/05/26 03:12:42;;;;;;;13.25;7.47;;;;;;;14.91;100.00;101446.15;1569753;91;22343;-88
2021/05/26 03:15:13;;;;;;;15.23;8.43;;;;;;;14.87;100.00;101447.75;1594599;89;21435;-89
2021/05/26 03:17:40;;;;;;;16.75;8.05;;;;;;;15.02;100.00;101448.88;1569868;91;21551;-89
2021/05/26 03:20:13;;;;;;;16.17;8.33;;;;;;;15.16;100.00;101447.27;1594679;90;21567;-89
2021/05/26 03:22:40;;;;;;;16.23;8.83;;;;;;;15.33;100.00;101453.81;1569843;91;21729;-89
2021/05/26 03:25:09;;;;;;;16.73;8.53;;;;;;;15.27;100.00;101453.00;1594681;90;21027;-89
2021/05/26 03:27:36;;;;;;;16.15;9.15;;;;;;;15.56;100.00;101445.13;1568469;91;22602;-89
2021/05/26 03:30:07;;;;;;;15.38;8.43;;;;;;;15.72;100.00;101449.23;1569863;91;21506;-90
2021/05/26 03:32:34;;;;;;;18.40;9.38;;;;;;;15.89;100.00;101453.83;1600653;85;21106;-90
2021/05/26 03:35:01;;;;;;;16.82;9.40;;;;;;;15.99;100.00;101452.98;1681282;84;21119;-89
2021/05/26 03:37:28;;;;;;;17.10;9.60;;;;;;;16.09;100.00;101452.98;1706643;84;21037;-90
2021/05/26 03:39:54;;;;;;;16.73;10.15;;;;;;;16.13;100.00;101452.69;1681651;84;20989;-89
2021/05/26 03:42:21;;;;;;;17.10;9.58;;;;;;;16.13;100.00;101452.69;1707783;84;21623;-90
2021/05/26 03:44:46;;;;;;;15.78;9.65;;;;;;;15.96;100.00;101457.61;1707785;84;21139;-90
2021/05/26 03:47:12;;;;;;;20.60;8.48;;;;;;;15.93;100.00;101424.19;1706707;84;20897;-90
2021/05/26 03:49:39;;;;;;;19.17;9.03;;;;;;;16.21;100.00;101449.41;1707458;82;21171;-89
2021/05/26 03:52:06;;;;;;;16.00;8.95;;;;;;;16.13;100.00;101460.84;1707966;84;21084;-89
2021/05/26 03:54:34;;;;;;;16.77;9.20;;;;;;;16.22;100.00;101460.55;1707633;84;21552;-90
2021/05/26 03:57:03;;;;;;;17.92;9.60;;;;;;;16.44;100.00;101458.02;1709147;84;21728;-90
2021/05/26 03:59:29;;;;;;;14.20;8.65;;;;;;;16.74;100.00;101461.98;1617864;88;21083;-90
2021/05/26 04:01:55;;;;;;;19.57;9.30;;;;;;;16.75;100.00;101454.08;1621295;88;20925;-89
2021/05/26 04:04:22;;;;;;;15.53;8.90;;;;;;;16.61;100.00;101454.41;1620918;88;21629;-90
2021/05/26 04:06:48;;;;;;;19.95;8.95;;;;;;;17.02;100.00;101461.84;1600171;88;21666;-90
2021/05/26 04:09:14;;;;;;;16.50;8.90;;;;;;;17.33;100.00;101460.30;1621915;88;21152;-90
2021/05/26 04:11:41;;;;;;;14.18;8.88;;;;;;;17.40;100.00;101461.33;1621672;88;21067;-90
2021/05/26 04:14:07;;;;;;;19.85;9.05;;;;;;;17.79;100.00;101458.56;1621907;88;21035;-90
2021/05/26 04:16:33;;;;;;;18.37;9.80;;;;;;;18.09;100.00;101456.10;1621918;88;21079;-90
2021/05/26 04:18:59;;;;;;;22.52;9.95;;;;;;;18.64;100.00;101460.37;1621594;88;21714;-90
2021/05/26 04:21:25;;;;;;;17.07;9.30;;;;;;;18.90;100.00;101463.61;1621806;88;21159;-90
2021/05/26 04:23:51;;;;;;;20.80;8.50;;;;;;;19.69;100.00;101462.41;1620921;88;21080;-89
2021/05/26 04:26:17;;;;;;;22.50;8.75;;;;;;;20.40;100.00;101462.44;1620151;88;21032;-90
2021/05/26 04:28:45;;;;;;;19.05;9.23;;;;;;;21.07;100.00;101458.30;1618710;87;21068;-89
2021/05/26 04:31:13;;;;;;;17.25;8.83;;;;;;;21.77;100.00;101464.56;1616189;87;21079;-90
2021/05/26 04:33:40;;;;;;;23.27;9.93;;;;;;;22.14;100.00;101463.84;1617169;87;21144;-89
2021/05/26 04:36:07;;;;;;;17.32;9.23;;;;;;;22.55;100.00;101463.28;1617008;87;21107;-89
2021/05/26 04:38:34;;;;;;;16.62;9.78;;;;;;;22.83;100.00;101470.13;1616950;87;21076;-90
2021/05/26 04:41:01;;;;;;;24.27;10.60;;;;;;;23.41;100.00;101475.50;1617090;87;21588;-90
2021/05/26 04:43:29;;;;;;;24.50;10.18;;;;;;;23.63;100.00;101476.69;1617157;87;21104;-89
2021/05/26 04:45:56;;;;;;;17.90;9.90;;;;;;;24.63;100.00;101478.70;1595438;88;21549;-89
2021/05/26 04:48:22;;;;;;;18.82;9.03;;;;;;;25.40;93.98;101481.23;1617018;87;21106;-90
2021/05/26 04:50:48;;;;;;;17.65;9.15;;;;;;;26.32;86.42;101482.23;1616649;87;21159;-90
2021/05/26 04:53:14;;;;;;;17.70;9.28;;;;;;;27.01;83.67;101483.23;1526537;91;20944;-89
2021/05/26 04:55:40;;;;;;;21.05;8.75;;;;;;;27.34;72.29;101480.25;1555637;88;21085;-90
2021/05/26 04:58:08;;;;;;;15.75;7.87;;;;;;;28.33;63.26;101476.91;1613555;87;21212;-90
2021/05/26 05:00:35;;;;;;;13.35;8.05;;;;;;;27.51;56.56;101477.76;1604176;87;21076;-90
2021/05/26 05:03:04;;;;;;;11.78;7.83;;;;;;;27.85;55.49;101474.95;1590400;88;21093;-90
2021/05/26 05:05:33;;;;;;;14.70;8.30;;;;;;;28.22;59.37;101474.66;1599196;88;21077;-90
2021/05/26 05:08:04;;;;;;;16.55;7.97;;;;;;;28.05;57.12;101479.98;1606168;87;21038;-90
2021/05/26 05:10:31;;;;;;;14.43;7.25;;;;;;;28.60;59.59;101480.73;1615708;87;21239;-91
2021/05/26 05:12:57;;;;;;;11.57;7.22;;;;;;;28.79;52.34;101484.91;1615585;87;21017;-90
2021/05/26 05:15:23;;;;;;;13.95;6.90;;;;;;;28.84;52.08;101483.84;1615655;87;21529;-90
2021/05/26 05:17:50;;;;;;;10.95;5.97;;;;;;;28.45;52.01;101476.83;1615550;87;21109;-91
2021/05/26 05:20:20;;;;;;;9.63;5.85;;;;;;;29.71;50.44;101483.05;1615832;87;21104;-90
2021/05/26 05:22:48;;;;;;;9.90;6.12;;;;;;;30.17;49.74;101479.67;1615796;87;21176;-91
2021/05/26 05:25:16;;;;;;;12.28;5.83;;;;;;;29.23;51.59;101479.13;1693844;82;21072;-88
2021/05/26 05:27:42;;;;;;;8.95;5.00;;;;;;;30.02;49.98;101479.23;1705058;82;21087;-90
2021/05/26 05:30:09;;;;;;;9.55;4.97;;;;;;;31.02;45.95;101484.14;1706377;82;21068;-90
2021/05/26 05:32:35;;;;;;;8.48;5.22;;;;;;;31.48;44.98;101481.94;1706550;82;21061;-91
2021/05/26 05:35:01;;;;;;;6.53;4.58;;;;;;;31.64;43.41;101479.70;1706445;82;21081;-90
2021/05/26 05:37:27;;;;;;;9.95;4.62;;;;;;;32.69;44.91;101480.78;1706393;84;21060;-89
2021/05/26 05:39:53;;;;;;;7.37;4.92;;;;;;;31.88;40.81;101483.10;1706463;82;20921;-91
2021/05/26 05:42:20;;;;;;;7.33;5.05;;;;;;;33.00;42.88;101473.78;1706249;82;21422;-90
2021/05/26 05:44:46;;;;;;;6.12;4.75;;;;;;;33.36;39.59;101479.48;1706554;82;21064;-89
2021/05/26 05:47:14;;;;;;;8.45;4.75;;;;;;;31.96;40.81;101485.41;1706353;82;21842;-91
2021/05/26 05:49:40;;;;;;;6.65;5.12;;;;;;;31.73;44.67;101477.19;1706438;84;21008;-89
2021/05/26 05:52:11;;;;;;;7.12;5.30;;;;;;;30.58;42.83;101481.33;1706303;83;22466;-90
2021/05/26 05:54:38;;;;;;;8.20;5.30;;;;;;;31.20;41.67;101485.16;1706276;82;21107;-90
2021/05/26 05:57:05;;;;;;;6.42;5.03;;;;;;;30.05;44.82;101482.06;1706366;82;21080;-90
2021/05/26 05:59:32;;;;;;;6.25;4.45;;;;;;;30.71;45.22;101481.33;1706458;82;21075;-90
2021/05/26 06:01:57;;;;;;;9.68;4.92;;;;;;;32.46;40.46;101475.45;1706281;82;22177;-90
2021/05/26 06:04:23;;;;;;;7.62;4.65;;;;;;;32.86;40.65;101479.88;1706504;82;21000;-90
2021/05/26 06:06:50;;;;;;;4.75;3.90;;;;;;;33.03;38.85;101476.36;1706461;82;20921;-90
2021/05/26 06:09:16;;;;;;;6.22;4.28;;;;;;;33.45;37.62;101473.52;1706331;82;21469;-90
2021/05/26 06:11:41;;;;;;;6.10;3.77;;;;;;;34.01;37.95;101479.60;1706335;82;21118;-90
2021/05/26 06:14:08;;;;;;;5.55;4.03;;;;;;;35.18;36.55;101478.59;1706345;82;21116;-90
2021/05/26 06:16:37;;;;;;;7.00;4.20;;;;;;;36.09;35.15;101480.41;1706440;82;21508;-91
2021/05/26 06:19:05;;;;;;;8.78;3.85;;;;;;;33.12;37.11;101478.80;1609894;89;21131;-90
2021/05/26 06:21:33;;;;;;;8.80;3.75;;;;;;;32.79;38.36;101484.80;1610068;88;21685;-91
2021/05/26 06:24:01;;;;;;;4.70;3.70;;;;;;;33.81;36.50;101475.79;1623153;88;22470;-92
2021/05/26 06:26:31;;;;;;;5.72;3.75;;;;;;;32.62;35.97;101483.54;1609990;89;21661;-88
2021/05/26 06:29:02;;;;;;;6.33;3.85;;;;;;;33.87;37.29;101479.78;1625157;87;21619;-91
2021/05/26 06:31:29;;;;;;;16.95;3.87;;;;;;;34.88;35.56;101476.27;1632545;87;21763;-90
2021/05/26 06:33:54;;;;;;;4.90;3.70;;;;;;;34.27;33.34;101483.98;1632667;87;21020;-93
2021/05/26 06:36:21;;;;;;;5.03;3.60;;;;;;;33.92;34.32;101475.80;1632488;87;21228;-92
2021/05/26 06:38:47;;;;;;;4.28;3.65;;;;;;;34.55;33.78;101474.17;1632537;87;21084;-92
2021/05/26 06:41:13;;;;;;;5.53;3.90;;;;;;;35.45;31.53;101473.22;1632622;87;21141;-94
2021/05/26 06:43:40;;;;;;;6.45;3.62;;;;;;;34.26;33.40;101467.01;1632801;87;21096;-93
2021/05/26 06:46:06;;;;;;;5.85;3.77;;;;;;;32.52;35.58;101468.91;1632477;87;21112;-90
2021/05/26 06:48:32;;;;;;;6.17;3.77;;;;;;;33.23;35.19;101467.86;1632576;87;21112;-90
2021/05/26 06:50:58;;;;;;;3.45;3.15;;;;;;;31.82;36.33;101469.31;1632462;87;21108;-90
2021/05/26 06:53:25;;;;;;;9.35;3.52;;;;;;;32.23;36.53;101470.07;1632572;87;21064;-90
2021/05/26 06:55:53;;;;;;;4.10;3.33;;;;;;;34.17;33.75;101465.22;1610945;87;21100;-87
2021/05/26 06:58:19;;;;;;;3.90;3.58;;;;;;;35.79;31.23;101464.78;1632445;87;21129;-86
2021/05/26 07:00:45;;;;;;;7.62;3.72;;;;;;;36.78;31.80;101463.66;1632609;87;21152;-86
2021/05/26 07:03:12;;;;;;;4.35;3.60;;;;;;;37.62;27.96;101460.72;1632520;87;21100;-87
2021/05/26 07:05:39;;;;;;;4.17;3.70;;;;;;;36.04;28.27;101468.22;1632437;87;21083;-86
2021/05/26 07:08:05;;;;;;;4.10;3.60;;;;;;;33.77;31.83;101460.19;1632517;87;21577;-89
2021/05/26 07:10:31;;;;;;;4.97;4.15;;;;;;;33.53;31.95;101458.97;1632522;87;21032;-88
2021/05/26 07:12:57;;;;;;;5.25;3.87;;;;;;;33.79;33.75;101465.59;1632520;87;21144;-89
2021/05/26 07:15:23;;;;;;;3.58;3.27;;;;;;;35.19;30.36;101463.97;1645628;85;21076;-88
2021/05/26 07:17:49;;;;;;;4.12;3.37;;;;;;;36.47;30.11;101459.96;1678279;85;21031;-88
2021/05/26 07:20:16;;;;;;;4.45;3.20;;;;;;;37.02;29.09;101455.53;1678391;85;21116;-90
2021/05/26 07:22:42;;;;;;;4.70;3.55;;;;;;;36.88;29.89;101456.30;1668151;84;21048;-92
2021/05/26 07:25:09;;;;;;;4.22;3.58;;;;;;;33.55;31.33;101457.38;1680838;85;21124;-92
2021/05/26 07:27:36;;;;;;;14.83;3.52;;;;;;;34.77;30.82;101459.52;1677653;84;21090;-92
2021/05/26 07:30:05;;;;;;;4.22;3.12;;;;;;;34.07;31.68;101462.64;1693011;83;21143;-90
2021/05/26 07:32:31;;;;;;;3.70;3.40;;;;;;;35.27;30.60;101464.13;1703384;82;21644;-91
2021/05/26 07:34:57;;;;;;;4.22;3.52;;;;;;;34.81;31.56;101463.09;1696941;82;21017;-89
2021/05/26 07:37:23;;;;;;;4.47;3.95;;;;;;;36.91;29.37;101459.06;1667382;84;21152;-88
2021/05/26 07:39:51;;;;;;;4.12;3.30;;;;;;;37.98;28.09;101465.19;1696353;83;21600;-89
2021/05/26 07:42:17;;;;;;;9.18;3.75;;;;;;;38.73;27.03;101465.19;1705312;84;21146;-88
2021/05/26 07:44:44;;;;;;;4.75;3.98;;;;;;;39.88;26.33;101461.22;1699621;83;21503;-89
2021/05/26 07:47:10;;;;;;;5.33;3.95;;;;;;;41.28;24.96;101453.86;1706288;84;21052;-87
2021/05/26 07:49:36;;;;;;;5.05;3.90;;;;;;;41.19;22.95;101448.09;1705502;84;21276;-87
2021/05/26 07:52:05;;;;;;;5.28;4.00;;;;;;;38.60;26.60;101446.73;1700513;82;21037;-88
2021/05/26 07:54:31;;;;;;;10.58;4.78;;;;;;;38.65;25.82;101448.86;1712670;81;21598;-89
2021/05/26 07:56:58;;;;;;;3.60;3.08;;;;;;;35.47;29.28;101454.56;1705168;82;21096;-89
2021/05/26 07:59:26;;;;;;;5.62;4.00;;;;;;;36.20;28.26;101445.81;1705783;84;21028;-92
2021/05/26 08:01:52;;;;;;;4.62;3.33;;;;;;;36.21;28.87;101431.38;1693299;83;21122;-90
2021/05/26 08:04:18;;;;;;;5.83;3.47;;;;;;;37.47;27.61;101444.67;1704998;84;21057;-89
2021/05/26 08:06:44;;;;;;;4.10;3.50;;;;;;;36.51;28.46;101447.48;1705233;84;21056;-93
2021/05/26 08:09:10;;;;;;;7.05;3.83;;;;;;;35.89;28.91;101451.30;1694692;83;21600;-89
2021/05/26 08:11:36;;;;;;;5.62;3.60;;;;;;;35.85;29.93;101448.49;1682389;84;20875;-89
2021/05/26 08:14:03;;;;;;;7.45;3.67;;;;;;;35.42;31.22;101450.81;1706859;82;21077;-90
2021/05/26 08:16:29;;;;;;;4.05;3.47;;;;;;;35.49;30.46;101448.75;1708047;84;21619;-90
2021/05/26 08:18:55;;;;;;;5.15;3.85;;;;;;;35.23;30.44;101445.91;1706426;84;21077;-90
2021/05/26 08:21:22;;;;;;;6.90;3.67;;;;;;;36.22;29.73;101440.59;1708331;82;20917;-90
2021/05/26 08:23:48;;;;;;;6.12;3.72;;;;;;;36.65;29.04;101432.52;1707886;84;21656;-90
2021/05/26 08:26:20;;;;;;;7.53;4.10;;;;;;;36.64;28.42;101437.14;1707943;82;21135;-90
2021/05/26 08:28:44;;;;;;;5.67;3.72;;;;;;;37.07;28.38;101440.84;1703076;84;21040;-90
2021/05/26 08:31:11;;;;;;;4.25;3.85;;;;;;;36.43;28.18;101431.14;1704931;82;21093;-91
2021/05/26 08:33:40;;;;;;;6.25;4.00;;;;;;;35.88;28.50;101433.64;1608127;86;21170;-89
2021/05/26 08:36:09;;;;;;;6.20;3.70;;;;;;;36.68;28.54;101431.67;1635372;86;21164;-90
2021/05/26 08:38:36;;;;;;;5.40;3.50;;;;;;;37.53;27.46;101432.33;1648566;86;21676;-90
2021/05/26 08:41:07;;;;;;;5.90;3.47;;;;;;;37.83;26.71;101419.58;1650082;85;21069;-90
2021/05/26 08:43:37;;;;;;;5.25;3.92;;;;;;;37.43;26.37;101420.80;1610157;88;21107;-92
2021/05/26 08:46:05;;;;;;;5.17;3.77;;;;;;;35.71;29.08;101430.41;1598515;88;21123;-89
2021/05/26 08:48:33;;;;;;;4.58;3.80;;;;;;;35.64;28.79;101427.03;1590218;88;21066;-89
2021/05/26 08:51:01;;;;;;;5.40;3.90;;;;;;;35.23;29.25;101433.90;1618004;88;21149;-89
2021/05/26 08:53:28;;;;;;;6.30;4.05;;;;;;;33.79;31.17;101430.64;1613522;88;21090;-89
2021/05/26 08:55:54;;;;;;;6.22;3.58;;;;;;;33.77;31.80;101423.84;1599037;88;21611;-88
2021/05/26 08:58:21;;;;;;;7.05;3.90;;;;;;;33.95;31.53;101421.06;1612415;87;21102;-88
2021/05/26 09:00:48;;;;;;;4.83;4.33;;;;;;;33.85;31.65;101424.84;1623184;88;22434;-87
2021/05/26 09:03:17;;;;;;;7.67;4.15;;;;;;;33.75;32.81;101421.45;1599299;88;21232;-87
2021/05/26 09:05:53;;;;;;;7.65;4.22;;;;;;;34.12;32.14;101425.84;1598429;88;21191;-87
2021/05/26 09:08:23;;;;;;;6.87;3.98;;;;;;;34.88;32.29;101430.66;1601328;87;22177;-87
2021/05/26 09:10:59;;;;;;;5.60;3.60;;;;;;;34.73;31.37;101422.91;1588729;88;21099;-87
2021/05/26 09:13:35;;;;;;;4.90;3.80;;;;;;;34.66;31.21;101417.36;1607512;87;21113;-86
2021/05/26 09:16:05;;;;;;;4.62;3.60;;;;;;;34.80;30.11;101420.10;1553558;90;21887;-89
2021/05/26 09:18:58;;;;;;;5.15;4.20;;;;;;;34.08;31.12;101416.06;1554001;92;21122;-91
2021/05/26 09:21:44;;;;;;;6.83;4.15;;;;;;;33.67;32.98;101422.64;1558989;90;21145;-88
2021/05/26 09:24:25;;;;;;;7.05;4.22;;;;;;;33.73;31.10;101413.27;1535787;93;21693;-89
2021/05/26 09:26:59;;;;;;;6.58;4.62;;;;;;;33.14;32.48;101417.14;1536406;92;21222;-90
2021/05/26 09:29:33;;;;;;;9.38;4.22;;;;;;;32.59;35.12;101414.51;1537688;90;21720;-87
2021/05/26 09:34:51;;;;;;;6.33;4.70;;;;;;;30.69;38.15;101418.28;1531404;92;21188;-91
2021/05/26 09:37:27;;;;;;;9.07;4.30;;;;;;;29.93;39.83;101412.77;1522642;92;21116;-87
2021/05/26 09:42:49;;;;;;;6.95;4.30;;;;;;;29.64;40.55;101413.67;1481638;96;21208;-87
2021/05/26 09:45:26;;;;;;;6.80;4.60;;;;;;;29.16;40.29;101406.81;1463675;96;21195;-86
2021/05/26 09:47:58;;;;;;;7.95;4.28;;;;;;;29.08;40.27;101410.62;1464826;96;21732;-86
2021/05/26 09:50:38;;;;;;;7.40;4.50;;;;;;;29.50;39.72;101409.22;1460569;96;21173;-89
2021/05/26 09:53:19;;;;;;;6.70;4.65;;;;;;;29.72;38.79;101406.87;1456382;96;21134;-87
2021/05/26 09:55:48;;;;;;;10.05;4.60;;;;;;;30.48;38.17;101409.06;1465264;96;21141;-87
2021/05/26 09:58:17;;;;;;;9.88;4.83;;;;;;;30.76;38.43;101405.03;1462630;96;21202;-86
2021/05/26 10:00:45;;;;;;;7.03;4.53;;;;;;;30.89;38.80;101400.88;1468632;96;21130;-86
2021/05/26 10:03:12;;;;;;;12.10;4.83;;;;;;;30.50;37.64;101401.15;1465109;96;21200;-89
2021/05/26 10:05:38;;;;;;;7.35;5.33;;;;;;;29.99;38.30;101397.97;1472068;96;21675;-88
2021/05/26 10:08:09;;;;;;;9.98;5.03;;;;;;;29.83;40.33;101400.91;1472419;96;21193;-88
2021/05/26 10:10:34;;;;;;;14.28;5.03;;;;;;;29.01;41.98;101395.98;1475021;95;21095;-88
2021/05/26 10:13:05;;;;;;;7.72;5.15;;;;;;;28.30;41.82;101400.80;1452355;98;21126;-88
2021/05/26 10:15:33;;;;;;;8.03;5.30;;;;;;;28.71;41.68;101393.01;1457632;96;21110;-88
2021/05/26 10:18:01;;;;;;;9.20;5.10;;;;;;;29.20;41.43;101390.43;1475331;96;21268;-89
2021/05/26 10:20:35;;;;;;;16.48;5.65;;;;;;;29.54;42.17;101392.05;1483239;96;21175;-89
2021/05/26 10:23:03;;;;;;;12.63;4.97;;;;;;;29.12;42.17;101385.11;1483399;96;21058;-90
2021/05/26 10:25:29;;;;;;;12.63;4.60;;;;;;;29.03;41.79;101387.31;1483351;96;21116;-91
2021/05/26 10:27:57;;;;;;;8.00;4.97;;;;;;;29.17;42.42;101386.20;1479634;96;21153;-92
2021/05/26 10:30:28;;;;;;;11.12;4.42;;;;;;;28.37;42.92;101382.92;1471318;96;21163;-92
2021/05/26 10:33:00;;;;;;;10.95;4.75;;;;;;;28.58;41.99;101378.45;1463438;96;21204;-95
2021/05/26 10:35:30;;;;;;;7.00;4.37;;;;;;;28.83;41.55;101378.19;1473629;96;21134;-92
2021/05/26 10:38:07;;;;;;;6.37;4.47;;;;;;;29.74;41.36;101376.14;1503562;92;21144;-90
2021/05/26 10:40:43;;;;;;;11.97;4.78;;;;;;;30.54;40.65;101369.98;1550603;92;21124;-89
2021/05/26 10:43:23;;;;;;;10.50;4.95;;;;;;;30.72;37.44;101381.94;1566732;90;21118;-96
2021/05/26 10:45:56;;;;;;;5.78;4.10;;;;;;;31.14;37.01;101372.49;1586217;90;21240;-93
2021/05/26 10:48:46;;;;;;;12.05;5.08;;;;;;;31.03;36.33;101370.98;1586896;90;21675;-94
2021/05/26 10:51:12;;;;;;;8.25;4.65;;;;;;;30.97;37.89;101373.89;1563270;90;21226;-96
2021/05/26 10:53:41;;;;;;;6.37;4.33;;;;;;;30.85;37.80;101368.00;1547800;91;21715;-95
2021/05/26 10:59:15;;;;;;;8.88;4.58;;;;;;;31.18;37.30;101364.40;1579903;90;21190;-95
2021/05/26 11:02:10;;;;;;;7.53;4.55;;;;;;;30.83;37.51;101359.84;1564778;90;21107;-96
2021/05/26 11:04:38;;;;;;;6.50;4.20;;;;;;;30.42;37.89;101365.27;1579299;90;21086;-94
2021/05/26 11:07:31;;;;;;;9.13;4.45;;;;;;;30.90;36.84;101356.53;1579308;89;21630;-94
2021/05/26 11:10:04;;;;;;;8.03;4.70;;;;;;;31.34;36.71;101353.00;1580616;90;21152;-94
2021/05/26 11:13:00;;;;;;;6.62;4.20;;;;;;;31.94;36.10;101346.35;1570434;90;21155;-94
2021/05/26 11:15:45;;;;;;;8.38;4.40;;;;;;;32.27;36.94;101347.38;1542950;92;21137;-93
2021/05/26 11:20:52;;;;;;;7.40;4.42;;;;;;;33.02;33.78;101343.50;1579189;90;21138;-91
2021/05/26 11:23:18;;;;;;;6.80;4.40;;;;;;;33.12;33.68;101346.09;1578187;90;21086;-91
2021/05/26 11:25:56;;;;;;;8.45;4.70;;;;;;;33.29;33.52;101345.33;1563514;91;21063;-92
2021/05/26 11:28:33;;;;;;;6.12;4.40;;;;;;;33.04;35.25;101343.91;1553574;91;21150;-92
2021/05/26 11:31:11;;;;;;;8.08;4.42;;;;;;;32.91;35.23;101337.05;1562270;91;21768;-93
2021/05/26 11:33:38;;;;;;;6.60;4.70;;;;;;;33.12;34.99;101332.13;1566374;91;21108;-91
2021/05/26 11:36:05;;;;;;;7.67;4.55;;;;;;;33.44;34.45;101330.19;1618330;88;21122;-93